Aviation Digital Data Service (ADDS)

Output produced by METARs form (0434 UTC 18 October 2018)
found at http://aviationweather.gov/metar/data/
 
KMSY 180353Z 05011KT 10SM OVC011 23/21 A3022 RMK AO2 SLP236 T02280206
KMSY 180308Z 1803/1906 05012G18KT P6SM OVC010 
     FM180900 04013KT P6SM SCT110 
     FM181900 06010KT P6SM SCT200